Time,TemperatureF,DewpointF,PressureIn,WindDirection,WindDirectionDegrees,WindSpeedMPH,WindSpeedGustMPH,Humidity,HourlyPrecipIn,Conditions,Clouds,dailyrainin,SolarRadiationWatts/m^2,SoftwareType,DateUTC
2013-02-17 00:50:00,34.0,20.0,-100.00,NNE,32,1.0,6.0,57,-99.99,,,0.00,0.000000,,2013-02-17 06:50:00,
2013-02-17 01:11:00,34.0,20.0,-100.00,NNE,32,1.0,6.0,57,-99.99,,,0.00,0.000000,,2013-02-17 07:11:00,
2013-02-17 01:21:00,34.0,20.0,-100.00,NNE,32,1.0,6.0,57,-99.99,,,0.00,0.000000,,2013-02-17 07:21:00,
2013-02-17 01:31:00,34.0,20.0,-100.00,NNE,32,1.0,6.0,57,-99.99,,,0.00,0.000000,,2013-02-17 07:31:00,
2013-02-17 01:41:00,34.0,20.0,-100.00,NNE,32,1.0,6.0,57,-99.99,,,0.00,0.000000,,2013-02-17 07:41:00,
2013-02-17 01:50:00,33.0,20.0,-100.00,NNE,26,3.0,5.0,58,0.00,,,0.00,0.000000,,2013-02-17 07:50:00,
2013-02-17 02:21:00,33.0,20.0,-100.00,NNE,26,3.0,5.0,58,0.00,,,0.00,0.000000,,2013-02-17 08:21:00,
2013-02-17 02:31:00,33.0,20.0,-100.00,NNE,26,3.0,5.0,58,0.00,,,0.00,0.000000,,2013-02-17 08:31:00,
2013-02-17 02:42:00,33.0,20.0,-100.00,NNE,26,3.0,5.0,58,0.00,,,0.00,0.000000,,2013-02-17 08:42:00,
2013-02-17 02:50:00,32.0,20.0,-100.00,NNE,18,1.0,4.0,62,0.00,,,0.00,0.000000,,2013-02-17 08:50:00,
2013-02-17 03:21:00,32.0,20.0,-100.00,NNE,18,1.0,4.0,62,0.00,,,0.00,0.000000,,2013-02-17 09:21:00,
2013-02-17 03:31:00,32.0,20.0,-100.00,NNE,18,1.0,4.0,62,0.00,,,0.00,0.000000,,2013-02-17 09:31:00,
2013-02-17 03:42:00,32.0,20.0,-100.00,NNE,18,1.0,4.0,62,0.00,,,0.00,0.000000,,2013-02-17 09:42:00,
2013-02-17 03:50:00,30.0,21.0,-100.00,NNE,25,2.0,4.0,68,0.00,,,0.00,0.000000,,2013-02-17 09:50:00,
2013-02-17 04:11:00,30.0,21.0,-100.00,NNE,25,2.0,4.0,68,0.00,,,0.00,0.000000,,2013-02-17 10:11:00,
2013-02-17 04:21:00,30.0,21.0,-100.00,NNE,25,2.0,4.0,68,0.00,,,0.00,0.000000,,2013-02-17 10:21:00,
2013-02-17 04:31:00,30.0,21.0,-100.00,NNE,25,2.0,4.0,68,0.00,,,0.00,0.000000,,2013-02-17 10:31:00,
2013-02-17 04:41:00,30.0,21.0,-100.00,NNE,25,2.0,4.0,68,0.00,,,0.00,0.000000,,2013-02-17 10:41:00,
2013-02-17 04:50:00,30.0,21.0,-100.00,NNE,27,3.0,5.0,68,0.00,,,0.00,0.000000,,2013-02-17 10:50:00,
2013-02-17 05:11:00,30.0,21.0,-100.00,NNE,27,3.0,5.0,68,0.00,,,0.00,0.000000,,2013-02-17 11:11:00,
2013-02-17 05:21:00,30.0,21.0,-100.00,NNE,27,3.0,5.0,68,0.00,,,0.00,0.000000,,2013-02-17 11:21:00,
2013-02-17 05:32:00,30.0,21.0,-100.00,NNE,27,3.0,5.0,68,0.00,,,0.00,0.000000,,2013-02-17 11:32:00,
2013-02-17 05:42:00,30.0,21.0,-100.00,NNE,27,3.0,5.0,68,0.00,,,0.00,0.000000,,2013-02-17 11:42:00,
2013-02-17 05:50:00,29.0,22.0,-100.00,NE,56,2.0,4.0,75,0.00,,,0.00,0.000000,,2013-02-17 11:50:00,
2013-02-17 06:22:00,29.0,22.0,-100.00,NE,56,2.0,4.0,75,0.00,,,0.00,0.000000,,2013-02-17 12:22:00,
2013-02-17 06:32:00,29.0,22.0,-100.00,NE,56,2.0,4.0,75,0.00,,,0.00,0.000000,,2013-02-17 12:32:00,
2013-02-17 06:42:00,29.0,22.0,-100.00,NE,56,2.0,4.0,75,0.00,,,0.00,0.000000,,2013-02-17 12:42:00,
2013-02-17 06:50:00,28.0,23.0,-100.00,ENE,64,0.0,4.0,81,0.00,,,0.00,4.000000,,2013-02-17 12:50:00,
2013-02-17 07:22:00,28.0,23.0,-100.00,ENE,64,0.0,4.0,81,0.00,,,0.00,4.000000,,2013-02-17 13:22:00,
2013-02-17 07:32:00,28.0,23.0,-100.00,ENE,64,0.0,4.0,81,0.00,,,0.00,4.000000,,2013-02-17 13:32:00,
2013-02-17 07:41:00,28.0,23.0,-100.00,ENE,64,0.0,4.0,81,0.00,,,0.00,4.000000,,2013-02-17 13:41:00,
2013-02-17 07:50:00,36.0,23.0,-100.00,ENE,66,3.0,5.0,59,0.00,,,0.00,134.000000,,2013-02-17 13:50:00,
2013-02-17 08:11:00,36.0,23.0,-100.00,ENE,66,3.0,5.0,59,0.00,,,0.00,134.000000,,2013-02-17 14:11:00,
2013-02-17 08:21:00,36.0,23.0,-100.00,ENE,66,3.0,5.0,59,0.00,,,0.00,134.000000,,2013-02-17 14:21:00,
2013-02-17 08:32:00,36.0,23.0,-100.00,ENE,66,3.0,5.0,59,0.00,,,0.00,134.000000,,2013-02-17 14:32:00,
2013-02-17 08:42:00,36.0,23.0,-100.00,ENE,66,3.0,5.0,59,0.00,,,0.00,134.000000,,2013-02-17 14:42:00,
2013-02-17 08:50:00,41.0,21.0,-100.00,East,86,7.0,10.0,44,0.00,,,0.00,345.000000,,2013-02-17 14:50:00,
2013-02-17 09:11:00,41.0,21.0,-100.00,East,86,7.0,10.0,44,0.00,,,0.00,345.000000,,2013-02-17 15:11:00,
2013-02-17 09:21:00,41.0,21.0,-100.00,East,86,7.0,10.0,44,0.00,,,0.00,345.000000,,2013-02-17 15:21:00,
2013-02-17 09:32:00,41.0,21.0,-100.00,East,86,7.0,10.0,44,0.00,,,0.00,345.000000,,2013-02-17 15:32:00,
2013-02-17 09:41:00,41.0,21.0,-100.00,East,86,7.0,10.0,44,0.00,,,0.00,345.000000,,2013-02-17 15:41:00,
2013-02-17 09:50:00,46.0,19.0,-100.00,ENE,66,3.0,9.0,34,0.00,,,0.00,538.000000,,2013-02-17 15:50:00,
2013-02-17 10:12:00,46.0,19.0,-100.00,ENE,66,3.0,9.0,34,0.00,,,0.00,538.000000,,2013-02-17 16:12:00,
2013-02-17 10:21:00,46.0,19.0,-100.00,ENE,66,3.0,9.0,34,0.00,,,0.00,538.000000,,2013-02-17 16:21:00,
2013-02-17 10:32:00,46.0,19.0,-100.00,ENE,66,3.0,9.0,34,0.00,,,0.00,538.000000,,2013-02-17 16:32:00,
2013-02-17 10:42:00,46.0,19.0,-100.00,ENE,66,3.0,9.0,34,0.00,,,0.00,538.000000,,2013-02-17 16:42:00,
2013-02-17 10:50:00,50.0,16.0,-100.00,SE,132,3.0,8.0,26,0.00,,,0.00,686.000000,,2013-02-17 16:50:00,
2013-02-17 11:11:00,50.0,16.0,-100.00,SE,132,3.0,8.0,26,0.00,,,0.00,686.000000,,2013-02-17 17:11:00,
2013-02-17 11:21:00,50.0,16.0,-100.00,SE,132,3.0,8.0,26,0.00,,,0.00,686.000000,,2013-02-17 17:21:00,
2013-02-17 11:41:00,50.0,16.0,-100.00,SE,132,3.0,8.0,26,0.00,,,0.00,686.000000,,2013-02-17 17:41:00,
2013-02-17 11:50:00,53.0,19.0,-100.00,South,191,6.0,11.0,26,0.00,,,0.00,771.000000,,2013-02-17 17:50:00,
2013-02-17 12:22:00,53.0,19.0,-100.00,South,191,6.0,11.0,26,0.00,,,0.00,771.000000,,2013-02-17 18:22:00,
2013-02-17 12:33:00,53.0,19.0,-100.00,South,191,6.0,11.0,26,0.00,,,0.00,771.000000,,2013-02-17 18:33:00,
2013-02-17 12:42:00,53.0,19.0,-100.00,South,191,6.0,11.0,26,0.00,,,0.00,771.000000,,2013-02-17 18:42:00,
2013-02-17 12:50:00,53.0,23.0,-100.00,South,189,6.0,13.0,31,0.00,,,0.00,787.000000,,2013-02-17 18:50:00,
2013-02-17 13:21:00,53.0,23.0,-100.00,South,189,6.0,13.0,31,0.00,,,0.00,787.000000,,2013-02-17 19:21:00,
2013-02-17 13:32:00,53.0,23.0,-100.00,South,189,6.0,13.0,31,0.00,,,0.00,787.000000,,2013-02-17 19:32:00,
2013-02-17 13:42:00,53.0,23.0,-100.00,South,189,6.0,13.0,31,0.00,,,0.00,787.000000,,2013-02-17 19:42:00,
2013-02-17 13:50:00,54.0,27.0,-100.00,SSE,158,6.0,12.0,35,0.00,,,0.00,734.000000,,2013-02-17 19:50:00,
2013-02-17 14:11:00,54.0,27.0,-100.00,SSE,158,6.0,12.0,35,0.00,,,0.00,734.000000,,2013-02-17 20:11:00,
2013-02-17 14:21:00,54.0,27.0,-100.00,SSE,158,6.0,12.0,35,0.00,,,0.00,734.000000,,2013-02-17 20:21:00,
2013-02-17 14:32:00,54.0,27.0,-100.00,SSE,158,6.0,12.0,35,0.00,,,0.00,734.000000,,2013-02-17 20:32:00,
2013-02-17 14:42:00,54.0,27.0,-100.00,SSE,158,6.0,12.0,35,0.00,,,0.00,734.000000,,2013-02-17 20:42:00,
2013-02-17 14:50:00,54.0,29.0,-100.00,South,177,7.0,13.0,38,0.00,,,0.00,619.000000,,2013-02-17 20:50:00,
2013-02-17 15:21:00,54.0,29.0,-100.00,South,177,7.0,13.0,38,0.00,,,0.00,619.000000,,2013-02-17 21:21:00,
2013-02-17 15:32:00,54.0,29.0,-100.00,South,177,7.0,13.0,38,0.00,,,0.00,619.000000,,2013-02-17 21:32:00,
2013-02-17 15:42:00,54.0,29.0,-100.00,South,177,7.0,13.0,38,0.00,,,0.00,619.000000,,2013-02-17 21:42:00,
2013-02-17 15:50:00,54.0,29.0,-100.00,SSE,162,5.0,12.0,38,0.00,,,-99.99,453.000000,,2013-02-17 21:50:00,
2013-02-17 16:12:00,54.0,29.0,-100.00,SSE,162,5.0,12.0,38,0.00,,,-99.99,453.000000,,2013-02-17 22:12:00,
2013-02-17 16:22:00,54.0,29.0,-100.00,SSE,162,5.0,12.0,38,0.00,,,-99.99,453.000000,,2013-02-17 22:22:00,
2013-02-17 16:32:00,54.0,29.0,-100.00,SSE,162,5.0,12.0,38,0.00,,,-99.99,453.000000,,2013-02-17 22:32:00,
2013-02-17 16:42:00,54.0,29.0,-100.00,SSE,162,5.0,12.0,38,0.00,,,-99.99,453.000000,,2013-02-17 22:42:00,
2013-02-17 16:50:00,53.0,29.0,-100.00,South,178,5.0,12.0,39,0.00,,,0.00,253.000000,,2013-02-17 22:50:00,
2013-02-17 17:11:00,53.0,29.0,-100.00,South,178,5.0,12.0,39,0.00,,,0.00,253.000000,,2013-02-17 23:11:00,
2013-02-17 17:21:00,53.0,29.0,-100.00,South,178,5.0,12.0,39,0.00,,,0.00,253.000000,,2013-02-17 23:21:00,
2013-02-17 17:32:00,53.0,29.0,-100.00,South,178,5.0,12.0,39,0.00,,,0.00,253.000000,,2013-02-17 23:32:00,
2013-02-17 17:42:00,53.0,29.0,-100.00,South,178,5.0,12.0,39,0.00,,,0.00,253.000000,,2013-02-17 23:42:00,
2013-02-17 17:50:00,49.0,31.0,-100.00,SSE,167,3.0,10.0,50,0.00,,,0.00,60.000000,,2013-02-17 23:50:00,
2013-02-17 18:11:00,49.0,31.0,-100.00,SSE,167,3.0,10.0,50,0.00,,,0.00,60.000000,,2013-02-18 00:11:00,
2013-02-17 18:22:00,49.0,31.0,-100.00,SSE,167,3.0,10.0,50,0.00,,,0.00,60.000000,,2013-02-18 00:22:00,
2013-02-17 18:32:00,49.0,31.0,-100.00,SSE,167,3.0,10.0,50,0.00,,,0.00,60.000000,,2013-02-18 00:32:00,
2013-02-17 18:41:00,49.0,31.0,-100.00,SSE,167,3.0,10.0,50,0.00,,,0.00,60.000000,,2013-02-18 00:41:00,
2013-02-17 18:50:00,46.0,34.0,-100.00,SSE,159,2.0,5.0,62,0.00,,,0.00,0.000000,,2013-02-18 00:50:00,
2013-02-17 19:21:00,46.0,34.0,-100.00,SSE,159,2.0,5.0,62,0.00,,,0.00,0.000000,,2013-02-18 01:21:00,
2013-02-17 19:32:00,46.0,34.0,-100.00,SSE,159,2.0,5.0,62,0.00,,,0.00,0.000000,,2013-02-18 01:32:00,
2013-02-17 19:41:00,46.0,34.0,-100.00,SSE,159,2.0,5.0,62,0.00,,,0.00,0.000000,,2013-02-18 01:41:00,
2013-02-17 19:50:00,45.0,35.0,-100.00,SSE,162,2.0,5.0,69,0.00,,,-99.99,0.000000,,2013-02-18 01:50:00,
2013-02-17 20:21:00,45.0,35.0,-100.00,SSE,162,2.0,5.0,69,0.00,,,-99.99,0.000000,,2013-02-18 02:21:00,
2013-02-17 20:32:00,45.0,35.0,-100.00,SSE,162,2.0,5.0,69,0.00,,,-99.99,0.000000,,2013-02-18 02:32:00,
2013-02-17 20:41:00,45.0,35.0,-100.00,SSE,162,2.0,5.0,69,0.00,,,-99.99,0.000000,,2013-02-18 02:41:00,
2013-02-17 20:50:00,44.0,36.0,-100.00,SE,137,3.0,5.0,72,0.00,,,0.00,0.000000,,2013-02-18 02:50:00,
2013-02-17 21:11:00,44.0,36.0,-100.00,SE,137,3.0,5.0,72,0.00,,,0.00,0.000000,,2013-02-18 03:11:00,
2013-02-17 21:21:00,44.0,36.0,-100.00,SE,137,3.0,5.0,72,0.00,,,0.00,0.000000,,2013-02-18 03:21:00,
2013-02-17 21:32:00,44.0,36.0,-100.00,SE,137,3.0,5.0,72,0.00,,,0.00,0.000000,,2013-02-18 03:32:00,
2013-02-17 21:42:00,44.0,36.0,-100.00,SE,137,3.0,5.0,72,0.00,,,0.00,0.000000,,2013-02-18 03:42:00,
2013-02-17 21:50:00,44.0,36.0,-100.00,SE,143,2.0,5.0,73,0.00,,,0.00,0.000000,,2013-02-18 03:50:00,
2013-02-17 22:21:00,44.0,36.0,-100.00,SE,143,2.0,5.0,73,0.00,,,0.00,0.000000,,2013-02-18 04:21:00,
2013-02-17 22:32:00,44.0,36.0,-100.00,SE,143,2.0,5.0,73,0.00,,,0.00,0.000000,,2013-02-18 04:32:00,
2013-02-17 22:41:00,44.0,36.0,-100.00,SE,143,2.0,5.0,73,0.00,,,0.00,0.000000,,2013-02-18 04:41:00,
2013-02-17 22:50:00,41.0,36.0,-100.00,SE,126,2.0,4.0,81,0.00,,,-99.99,0.000000,,2013-02-18 04:50:00,
2013-02-17 23:11:00,41.0,36.0,-100.00,SE,126,2.0,4.0,81,0.00,,,-99.99,0.000000,,2013-02-18 05:11:00,
2013-02-17 23:21:00,41.0,36.0,-100.00,SE,126,2.0,4.0,81,0.00,,,-99.99,0.000000,,2013-02-18 05:21:00,
2013-02-17 23:31:00,41.0,36.0,-100.00,SE,126,2.0,4.0,81,0.00,,,-99.99,0.000000,,2013-02-18 05:31:00,
2013-02-17 23:41:00,41.0,36.0,-100.00,SE,126,2.0,4.0,81,0.00,,,-99.99,0.000000,,2013-02-18 05:41:00,